Time;durP1;ratioP1;P1;durP2;ratioP2;P2;SDS_P1;SDS_P2;PMS_P1;PMS_P2;Temp;Humidity;BMP_temperature;BMP_pressure;BME280_temperature;BME280_humidity;BME280_pressure;Samples;Min_cycle;Max_cycle;Signal;HPM_P1;HPM_P2
2024/01/12 00:01:04;;;;;;;59.00;34.13;;;;;;;-0.62;54.95;100060.72;6734669;29;20303;-79
2024/01/12 00:04:27;;;;;;;54.30;30.87;;;;;;;-0.10;54.84;100075.59;6734799;29;20730;-79
2024/01/12 00:07:49;;;;;;;56.30;34.37;;;;;;;0.01;53.97;100075.69;6732887;29;20722;-79
2024/01/12 00:11:10;;;;;;;50.33;30.70;;;;;;;-0.08;52.82;100073.66;6736073;29;20247;-79
2024/01/12 00:14:32;;;;;;;53.47;29.90;;;;;;;0.15;52.60;100070.22;6733910;29;20221;-79
2024/01/12 00:17:53;;;;;;;53.17;32.20;;;;;;;0.11;52.68;100082.00;6733701;29;20347;-79
2024/01/12 00:21:16;;;;;;;58.60;33.97;;;;;;;-0.42;53.54;100086.72;6733635;29;20364;-80
2024/01/12 00:24:38;;;;;;;51.80;31.67;;;;;;;-0.47;54.39;100078.25;6738546;29;20223;-81
2024/01/12 00:27:59;;;;;;;54.67;33.73;;;;;;;-0.52;55.82;100081.22;6738904;29;20726;-81
2024/01/12 00:31:21;;;;;;;59.37;33.60;;;;;;;-0.39;55.35;100091.78;6741876;29;20292;-81
2024/01/12 00:34:42;;;;;;;58.17;32.47;;;;;;;-0.50;55.26;100092.53;6736614;29;20694;-84
2024/01/12 00:38:05;;;;;;;52.33;31.83;;;;;;;-0.57;54.84;100085.97;6721013;29;20300;-82
2024/01/12 00:41:27;;;;;;;58.00;32.90;;;;;;;-0.53;55.75;100094.56;6723369;29;20231;-81
2024/01/12 00:44:48;;;;;;;58.43;32.93;;;;;;;-0.54;55.22;100104.28;6720018;29;20206;-82
2024/01/12 00:48:10;;;;;;;62.80;35.13;;;;;;;-0.45;54.93;100092.22;6735762;29;20326;-81
2024/01/12 00:51:31;;;;;;;54.27;34.53;;;;;;;-0.49;54.98;100091.59;6736516;29;20299;-80
2024/01/12 00:54:54;;;;;;;60.57;34.37;;;;;;;-0.28;54.83;100106.84;6711249;29;20202;-81
2024/01/12 00:58:15;;;;;;;63.87;36.87;;;;;;;-0.08;54.47;100064.88;6707632;29;20390;-81
2024/01/12 01:01:37;;;;;;;59.67;33.93;;;;;;;-0.03;54.17;100087.44;6708598;29;20259;-82
2024/01/12 01:04:59;;;;;;;54.97;32.83;;;;;;;0.04;54.03;100094.00;6714892;29;20696;-80
2024/01/12 01:08:20;;;;;;;60.17;36.30;;;;;;;-0.31;53.48;100098.25;6736550;29;20232;-80
2024/01/12 01:11:43;;;;;;;61.27;35.30;;;;;;;0.15;53.48;100094.97;6736106;29;20244;-80
2024/01/12 01:15:06;;;;;;;60.67;35.20;;;;;;;-0.12;53.48;100099.53;6736951;29;20924;-81
2024/01/12 01:18:30;;;;;;;58.27;34.70;;;;;;;-0.64;54.13;100112.97;6733857;29;20232;-80
2024/01/12 01:21:51;;;;;;;58.47;34.70;;;;;;;-0.71;55.34;100115.16;6734849;29;20223;-81
2024/01/12 01:25:13;;;;;;;63.97;35.20;;;;;;;-0.69;54.77;100100.03;6734989;29;20338;-81
2024/01/12 01:28:36;;;;;;;62.83;34.77;;;;;;;-0.50;54.46;100099.63;6732751;29;20319;-80
2024/01/12 01:31:57;;;;;;;71.33;37.20;;;;;;;-0.29;53.59;100111.41;6740478;29;20276;-82
2024/01/12 01:35:19;;;;;;;61.90;34.43;;;;;;;-0.68;53.84;100111.47;6732999;29;20340;-81
2024/01/12 01:38:40;;;;;;;65.57;35.20;;;;;;;-0.94;54.73;100115.00;6733210;29;20329;-80
2024/01/12 01:42:02;;;;;;;72.80;35.67;;;;;;;-1.06;55.40;100111.38;6733459;29;20674;-81
2024/01/12 01:45:25;;;;;;;68.37;36.50;;;;;;;-0.74;54.83;100111.88;6732996;29;20209;-81
2024/01/12 01:48:46;;;;;;;63.43;32.43;;;;;;;-0.71;54.49;100114.34;6735899;29;20323;-80
2024/01/12 01:52:09;;;;;;;63.13;33.93;;;;;;;-0.68;54.43;100117.63;6735905;29;20785;-80
2024/01/12 01:55:31;;;;;;;64.03;36.00;;;;;;;-1.04;54.97;100113.91;6734866;29;20709;-81
2024/01/12 01:58:53;;;;;;;68.80;35.83;;;;;;;-1.33;55.15;100017.09;6733538;29;20240;-80
2024/01/12 02:02:16;;;;;;;68.40;34.23;;;;;;;-0.88;55.75;100104.88;6732982;29;20231;-81
2024/01/12 02:05:37;;;;;;;57.73;34.10;;;;;;;-0.77;55.26;100101.50;6732299;29;20301;-81
2024/01/12 02:08:59;;;;;;;59.20;34.60;;;;;;;-0.74;54.28;100122.47;6733134;29;20239;-80
2024/01/12 02:12:20;;;;;;;57.97;33.77;;;;;;;-0.40;54.02;100106.84;6733423;29;20634;-80
2024/01/12 02:15:42;;;;;;;59.40;32.60;;;;;;;-0.61;53.96;100104.84;6732760;29;20216;-82
2024/01/12 02:19:05;;;;;;;71.50;35.87;;;;;;;-0.77;54.23;100096.22;6732281;29;20275;-80
2024/01/12 02:22:28;;;;;;;57.30;32.47;;;;;;;-0.99;54.91;100099.44;6732897;29;20235;-80
2024/01/12 02:25:50;;;;;;;64.17;35.27;;;;;;;-0.70;54.80;100097.50;6732349;29;20679;-80
2024/01/12 02:29:11;;;;;;;64.97;36.03;;;;;;;-1.02;54.91;100101.44;6732410;29;20279;-80
2024/01/12 02:32:33;;;;;;;57.83;33.40;;;;;;;-1.06;54.49;100103.44;6733140;29;20244;-81
2024/01/12 02:35:54;;;;;;;73.30;37.87;;;;;;;-0.48;54.10;100093.28;6732672;29;20243;-81
2024/01/12 02:39:17;;;;;;;59.97;35.07;;;;;;;-0.36;53.86;100099.53;6732921;29;20403;-80
2024/01/12 02:42:39;;;;;;;62.50;35.93;;;;;;;-0.49;53.38;100083.63;6732238;29;20435;-80
2024/01/12 02:46:00;;;;;;;61.20;33.27;;;;;;;-0.56;53.28;100087.66;6731771;29;20651;-82
2024/01/12 02:49:22;;;;;;;64.40;35.70;;;;;;;-1.11;54.07;100073.78;6732308;29;20232;-80
2024/01/12 02:52:43;;;;;;;67.93;38.23;;;;;;;-1.18;54.64;100064.53;6731923;29;20303;-80
2024/01/12 02:56:06;;;;;;;66.10;35.43;;;;;;;-1.32;54.66;100079.63;6708737;29;20264;-80
2024/01/12 02:59:28;;;;;;;65.03;35.07;;;;;;;-1.29;54.20;100066.22;6738274;29;20247;-80
2024/01/12 03:02:49;;;;;;;57.13;32.77;;;;;;;-1.14;54.74;100103.09;6735198;29;20336;-80
2024/01/12 03:06:11;;;;;;;56.37;34.67;;;;;;;-1.14;54.63;100089.03;6741797;29;20219;-83
2024/01/12 03:09:32;;;;;;;62.67;34.80;;;;;;;-0.79;53.68;100083.06;6749494;29;20225;-81
2024/01/12 03:12:55;;;;;;;57.90;33.97;;;;;;;-0.78;53.32;100045.06;6750360;29;20208;-80
2024/01/12 03:16:20;;;;;;;65.37;35.10;;;;;;;-0.36;52.54;100081.81;6739948;29;21011;-80
2024/01/12 03:19:42;;;;;;;61.53;34.97;;;;;;;-0.68;52.80;100093.78;6732407;29;20239;-80
2024/01/12 03:23:04;;;;;;;59.60;34.10;;;;;;;-0.66;52.37;100076.00;6743668;29;20211;-80
2024/01/12 03:26:26;;;;;;;60.00;35.20;;;;;;;-0.52;52.60;100096.25;6738490;29;20232;-80
2024/01/12 03:29:49;;;;;;;56.33;34.47;;;;;;;-0.86;52.35;100089.72;6757998;29;20303;-80
2024/01/12 03:33:11;;;;;;;66.17;37.13;;;;;;;-1.38;54.13;100074.72;6738019;29;20251;-80
2024/01/12 03:36:32;;;;;;;64.33;34.80;;;;;;;-1.28;54.08;100094.34;6741510;29;20268;-81
2024/01/12 03:39:54;;;;;;;61.40;34.47;;;;;;;-1.46;55.19;100088.47;6732596;29;20291;-80
2024/01/12 03:43:15;;;;;;;59.23;32.33;;;;;;;-1.50;54.95;100100.19;6736327;29;20732;-80
2024/01/12 03:46:38;;;;;;;60.07;35.30;;;;;;;-1.45;55.18;100102.53;6739006;29;20315;-80
2024/01/12 03:50:00;;;;;;;55.40;33.67;;;;;;;-0.96;54.11;100112.47;6741636;29;20296;-81
2024/01/12 03:53:21;;;;;;;61.70;33.93;;;;;;;-0.84;53.39;100092.28;6733078;29;20250;-80
2024/01/12 03:56:43;;;;;;;55.60;33.87;;;;;;;-0.55;53.29;100107.06;6749107;29;20312;-79
2024/01/12 04:00:05;;;;;;;63.50;35.43;;;;;;;-0.55;52.24;100099.94;6754521;29;20272;-80
2024/01/12 04:03:28;;;;;;;62.80;35.50;;;;;;;-0.76;53.18;100093.47;6738978;29;20220;-78
2024/01/12 04:06:50;;;;;;;64.93;34.57;;;;;;;-1.01;53.23;100100.50;6735591;29;20890;-79
2024/01/12 04:10:11;;;;;;;57.87;34.63;;;;;;;-1.15;53.03;100097.91;6728166;29;20217;-78
2024/01/12 04:13:33;;;;;;;61.10;33.57;;;;;;;-1.31;53.15;100100.69;6734835;29;20692;-79
2024/01/12 04:16:54;;;;;;;65.57;33.60;;;;;;;-1.45;53.72;100106.03;6726876;29;20375;-79
2024/01/12 04:20:17;;;;;;;54.07;31.97;;;;;;;-1.67;54.26;100097.78;6728300;29;20232;-79
2024/01/12 04:23:39;;;;;;;59.33;34.03;;;;;;;-1.75;54.77;100113.28;6744213;29;20239;-80
2024/01/12 04:27:01;;;;;;;64.70;34.00;;;;;;;-1.59;55.03;100106.06;6731692;29;20273;-81
2024/01/12 04:30:22;;;;;;;57.43;33.73;;;;;;;-1.67;54.71;100081.91;6750370;29;20240;-78
2024/01/12 04:33:44;;;;;;;64.20;36.27;;;;;;;-1.60;54.87;100095.59;6742205;29;20299;-78
2024/01/12 04:37:07;;;;;;;52.60;33.37;;;;;;;-1.16;54.20;100109.44;6744875;29;20359;-80
2024/01/12 04:40:28;;;;;;;61.27;32.40;;;;;;;-0.93;53.10;100092.88;6733200;29;20245;-78
2024/01/12 04:43:50;;;;;;;64.60;34.00;;;;;;;-0.78;52.44;100102.47;6733062;29;20633;-79
2024/01/12 04:47:11;;;;;;;52.00;33.07;;;;;;;-1.19;53.17;100107.00;6732096;29;20323;-80
2024/01/12 04:50:33;;;;;;;57.40;34.63;;;;;;;-1.13;53.13;100110.06;6735384;29;20307;-79
2024/01/12 04:53:56;;;;;;;58.57;31.97;;;;;;;-1.16;53.08;100109.44;6733095;29;20356;-79
2024/01/12 04:57:17;;;;;;;54.53;31.63;;;;;;;-1.21;53.17;100107.09;6745730;29;20714;-79
2024/01/12 05:00:39;;;;;;;56.03;33.13;;;;;;;-1.83;54.31;100112.06;6732384;29;20463;-78
2024/01/12 05:04:00;;;;;;;63.47;32.47;;;;;;;-1.75;54.57;100117.72;6732303;29;20212;-80
2024/01/12 05:07:22;;;;;;;53.27;32.77;;;;;;;-1.79;53.98;100108.25;6731769;29;21004;-80
2024/01/12 05:10:45;;;;;;;58.30;33.30;;;;;;;-1.94;54.90;100136.53;6733649;29;20292;-79
2024/01/12 05:14:07;;;;;;;59.60;34.20;;;;;;;-1.77;54.89;100124.91;6732858;29;20216;-79
2024/01/12 05:17:28;;;;;;;57.17;32.63;;;;;;;-1.51;54.12;100143.47;6732000;29;20604;-80
2024/01/12 05:20:50;;;;;;;57.63;33.53;;;;;;;-1.74;54.94;100132.63;6731811;29;20235;-79
2024/01/12 05:24:11;;;;;;;59.03;33.30;;;;;;;-1.49;54.49;100138.06;6732370;29;20329;-79
2024/01/12 05:27:34;;;;;;;61.63;34.93;;;;;;;-1.35;54.04;100140.69;6731238;29;20231;-80
2024/01/12 05:30:56;;;;;;;62.23;32.77;;;;;;;-1.10;53.41;100138.13;6755833;29;20624;-79
2024/01/12 05:34:17;;;;;;;60.43;33.47;;;;;;;-1.69;53.58;100143.75;6745543;29;20208;-80
2024/01/12 05:37:39;;;;;;;65.07;33.10;;;;;;;-1.16;53.39;100135.88;6730717;29;20304;-80
2024/01/12 05:41:00;;;;;;;54.63;31.53;;;;;;;-1.42;52.12;100137.56;6733278;29;20323;-79
2024/01/12 05:44:23;;;;;;;57.60;33.10;;;;;;;-1.73;53.43;100139.63;6733491;29;20255;-79
2024/01/12 05:47:45;;;;;;;59.97;32.30;;;;;;;-1.65;53.56;100135.53;6747734;29;20327;-79
2024/01/12 05:51:06;;;;;;;55.73;32.37;;;;;;;-1.64;53.37;100146.97;6745339;29;20675;-80
2024/01/12 05:54:28;;;;;;;59.83;33.57;;;;;;;-1.85;54.01;100141.22;6735590;29;20293;-79
2024/01/12 05:57:49;;;;;;;58.90;33.30;;;;;;;-1.32;52.50;100138.69;6746692;29;20269;-80
2024/01/12 06:01:12;;;;;;;63.00;33.23;;;;;;;-1.14;52.39;100147.25;6758264;29;20280;-79
2024/01/12 06:04:33;;;;;;;62.03;35.43;;;;;;;-1.33;51.59;100144.06;6758438;29;20366;-81
2024/01/12 06:07:55;;;;;;;59.33;34.40;;;;;;;-2.30;53.30;100130.00;6757356;29;20255;-79
2024/01/12 06:11:16;;;;;;;71.33;35.87;;;;;;;-1.94;54.46;100118.03;6723657;29;20291;-80
2024/01/12 06:14:38;;;;;;;64.27;34.27;;;;;;;-2.02;54.20;100135.31;6730601;29;20268;-81
2024/01/12 06:18:01;;;;;;;60.93;34.30;;;;;;;-1.67;53.60;100137.44;6730463;29;20232;-79
2024/01/12 06:21:23;;;;;;;59.40;33.83;;;;;;;-2.11;53.86;100134.06;6747097;29;20247;-80
2024/01/12 06:24:44;;;;;;;58.80;33.20;;;;;;;-2.01;54.13;100129.91;6756932;29;20309;-80
2024/01/12 06:28:06;;;;;;;64.63;33.27;;;;;;;-1.50;52.56;100118.69;6757040;29;20236;-80
2024/01/12 06:31:30;;;;;;;59.43;33.97;;;;;;;-1.48;51.73;100115.97;6747057;29;20357;-80
2024/01/12 06:34:53;;;;;;;58.33;32.37;;;;;;;-1.91;51.94;100130.16;6730836;29;20222;-80
2024/01/12 06:38:15;;;;;;;62.43;34.60;;;;;;;-1.72;52.52;100120.19;6730624;29;20259;-80
2024/01/12 06:41:42;;;;;;;55.33;33.77;;;;;;;-1.70;53.02;100112.97;6731072;29;20290;-79
2024/01/12 06:45:07;;;;;;;54.13;32.73;;;;;;;-2.11;53.62;100106.78;6731329;29;20646;-81
2024/01/12 06:48:28;;;;;;;64.03;35.27;;;;;;;-2.25;54.18;100117.38;6730161;29;20235;-80
2024/01/12 06:51:51;;;;;;;65.87;35.77;;;;;;;-2.03;53.85;100110.66;6732027;29;20258;-81
2024/01/12 06:55:12;;;;;;;58.70;33.33;;;;;;;-1.98;54.08;100107.72;6735435;29;20307;-81
2024/01/12 06:58:34;;;;;;;65.20;35.73;;;;;;;-1.78;53.35;100115.28;6729914;29;20266;-79
2024/01/12 07:01:55;;;;;;;57.60;36.10;;;;;;;-1.59;52.77;100110.50;6730264;29;20321;-79
2024/01/12 07:05:17;;;;;;;60.10;32.40;;;;;;;-2.07;53.81;100124.16;6729247;29;20248;-81
2024/01/12 07:08:40;;;;;;;57.57;33.30;;;;;;;-2.20;54.42;100117.94;6729051;29;20679;-80
2024/01/12 07:12:03;;;;;;;57.13;32.23;;;;;;;-2.02;53.94;100130.00;6729382;29;20310;-81
2024/01/12 07:15:24;;;;;;;61.40;34.43;;;;;;;-1.84;54.07;100116.50;6729498;29;20246;-79
2024/01/12 07:18:46;;;;;;;54.40;33.87;;;;;;;-1.92;52.86;100136.41;6729119;29;20235;-80
2024/01/12 07:22:07;;;;;;;64.30;34.07;;;;;;;-2.19;53.57;100127.56;6733690;29;20228;-82
2024/01/12 07:25:33;;;;;;;58.40;33.13;;;;;;;-2.21;54.12;100134.69;6706715;29;20252;-79
2024/01/12 07:28:55;;;;;;;55.67;31.53;;;;;;;-2.00;53.78;100130.75;6703666;29;20235;-79
2024/01/12 07:32:16;;;;;;;60.13;33.93;;;;;;;-1.89;53.63;100139.72;6704661;29;20212;-79
2024/01/12 07:35:38;;;;;;;62.40;34.23;;;;;;;-1.61;52.79;100125.63;6713238;29;20236;-80
2024/01/12 07:38:59;;;;;;;57.87;31.70;;;;;;;-1.91;53.57;100135.47;6731258;29;20232;-79
2024/01/12 07:42:22;;;;;;;54.43;32.47;;;;;;;-1.87;53.58;100143.13;6730015;29;20243;-79
2024/01/12 07:45:44;;;;;;;63.37;33.90;;;;;;;-1.93;53.78;100140.88;6730022;29;20311;-80
2024/01/12 07:49:05;;;;;;;59.70;34.20;;;;;;;-1.82;53.46;100161.34;6732261;29;20248;-79
2024/01/12 07:52:27;;;;;;;61.10;35.53;;;;;;;-1.71;53.57;100159.69;6729536;29;20281;-79
2024/01/12 07:55:49;;;;;;;60.23;35.10;;;;;;;-1.54;52.89;100158.66;6725851;29;20666;-79
2024/01/12 07:59:12;;;;;;;61.93;34.67;;;;;;;-1.63;53.41;100165.38;6730127;29;20589;-79
2024/01/12 08:02:34;;;;;;;56.83;33.40;;;;;;;-1.21;52.52;100157.34;6729242;29;20327;-79
2024/01/12 08:05:56;;;;;;;56.70;33.00;;;;;;;-1.42;51.74;100160.53;6729123;29;20240;-79
2024/01/12 08:09:17;;;;;;;60.37;34.43;;;;;;;-1.19;52.65;100167.84;6729823;29;20234;-79
2024/01/12 08:12:39;;;;;;;55.23;32.80;;;;;;;-1.39;52.90;100145.31;6729101;29;20261;-80
2024/01/12 08:16:02;;;;;;;53.00;31.87;;;;;;;-1.35;52.89;100160.06;6730700;29;20303;-79
2024/01/12 08:19:23;;;;;;;60.10;34.23;;;;;;;-0.97;52.75;100176.94;6738326;29;20674;-79
2024/01/12 08:22:45;;;;;;;62.87;33.80;;;;;;;-0.55;51.55;100181.22;6734855;29;20262;-79
2024/01/12 08:26:06;;;;;;;54.77;32.77;;;;;;;-0.38;51.43;100170.31;6732756;29;20260;-79
2024/01/12 08:29:28;;;;;;;61.03;35.10;;;;;;;-0.24;51.54;100196.75;6734085;29;20280;-79
2024/01/12 08:32:51;;;;;;;55.23;35.47;;;;;;;-0.72;51.82;100190.25;6735015;29;20240;-79
2024/01/12 08:36:13;;;;;;;58.70;32.60;;;;;;;-0.24;52.23;100196.75;6733228;29;20224;-79
2024/01/12 08:39:34;;;;;;;55.03;34.50;;;;;;;0.00;51.11;100191.47;6736692;29;20302;-81
2024/01/12 08:42:57;;;;;;;57.93;32.30;;;;;;;0.16;50.37;100197.41;6735028;29;20266;-80
2024/01/12 08:46:18;;;;;;;60.50;33.20;;;;;;;1.01;49.17;100197.47;6736564;29;20244;-79
2024/01/12 08:49:41;;;;;;;55.93;33.00;;;;;;;2.05;45.37;100195.69;6737053;29;20223;-81
2024/01/12 08:53:03;;;;;;;58.53;33.43;;;;;;;2.64;44.67;100184.75;6740253;29;20203;-82
2024/01/12 08:56:25;;;;;;;58.43;35.47;;;;;;;3.30;44.83;100181.13;6762709;29;20224;-80
2024/01/12 08:59:46;;;;;;;58.20;34.03;;;;;;;3.36;43.24;100192.13;6763984;29;20704;-80
2024/01/12 09:03:08;;;;;;;59.60;34.53;;;;;;;2.43;43.69;100201.56;6763013;29;20256;-80
2024/01/12 09:06:31;;;;;;;57.63;33.30;;;;;;;2.11;46.46;100204.06;6761736;29;20237;-81
2024/01/12 09:09:52;;;;;;;60.17;36.07;;;;;;;0.97;48.21;100194.19;6754893;29;20216;-80
2024/01/12 09:13:14;;;;;;;70.80;39.90;;;;;;;0.39;49.90;100203.75;6743026;29;20305;-82
2024/01/12 09:16:36;;;;;;;76.63;42.40;;;;;;;0.93;50.17;100213.09;6735093;29;20229;-81
2024/01/12 09:19:57;;;;;;;74.17;41.03;;;;;;;0.73;51.17;100203.91;6718936;29;20216;-80
2024/01/12 09:23:20;;;;;;;60.27;35.97;;;;;;;1.28;50.45;100196.28;6715801;29;20221;-80
2024/01/12 09:26:42;;;;;;;52.10;33.40;;;;;;;1.58;50.26;100209.97;6711562;29;20232;-80
2024/01/12 09:30:04;;;;;;;56.10;35.17;;;;;;;1.69;49.22;100209.16;6710714;29;20362;-80
2024/01/12 09:33:26;;;;;;;58.43;33.87;;;;;;;1.73;49.62;100210.63;6727084;29;20209;-80
2024/01/12 09:36:47;;;;;;;64.37;34.17;;;;;;;1.84;48.93;100211.50;6733274;29;20292;-80
2024/01/12 09:40:12;;;;;;;57.67;33.80;;;;;;;1.85;49.16;100212.34;6733707;29;20220;-81
2024/01/12 09:43:35;;;;;;;62.80;34.60;;;;;;;1.88;49.77;100222.75;6733455;29;20697;-81
2024/01/12 09:46:57;;;;;;;70.07;36.63;;;;;;;1.81;50.29;100193.13;6739926;29;20252;-80
2024/01/12 09:50:21;;;;;;;61.53;34.07;;;;;;;2.23;48.99;100210.25;6736885;29;20303;-80
2024/01/12 09:53:43;;;;;;;56.10;33.80;;;;;;;2.04;49.67;100218.81;6733909;29;20208;-80
2024/01/12 09:57:07;;;;;;;53.57;33.07;;;;;;;1.00;51.88;100211.69;6733219;29;20236;-80
2024/01/12 10:00:29;;;;;;;61.50;35.60;;;;;;;2.14;51.13;100209.13;6730982;29;20319;-81
2024/01/12 10:03:51;;;;;;;55.93;34.50;;;;;;;2.57;49.16;100198.66;6733813;29;20303;-80
2024/01/12 10:07:13;;;;;;;58.03;35.20;;;;;;;2.39;49.81;100182.34;6733385;29;20318;-81
2024/01/12 10:10:34;;;;;;;56.70;34.50;;;;;;;2.65;49.40;100188.28;6734371;29;20243;-80
2024/01/12 10:13:57;;;;;;;57.37;35.93;;;;;;;2.89;49.20;100180.97;6735132;29;20229;-81
2024/01/12 10:17:19;;;;;;;51.70;32.80;;;;;;;2.85;48.35;100183.06;6733501;29;20345;-81
2024/01/12 10:20:40;;;;;;;58.60;34.93;;;;;;;2.65;49.73;100185.63;6740712;29;20586;-80
2024/01/12 10:24:03;;;;;;;61.47;35.73;;;;;;;2.35;49.91;100174.69;6734122;29;20252;-80
2024/01/12 10:27:25;;;;;;;60.53;35.33;;;;;;;2.79;48.62;100188.00;6733229;29;20713;-80
2024/01/12 10:30:48;;;;;;;56.47;35.93;;;;;;;2.99;48.58;100188.09;6733443;29;20661;-80
2024/01/12 10:34:11;;;;;;;63.73;36.63;;;;;;;2.70;48.75;100141.66;6730607;29;20216;-81
2024/01/12 10:37:32;;;;;;;59.47;35.27;;;;;;;3.55;48.31;100154.94;6730255;29;20239;-82
2024/01/12 10:40:57;;;;;;;55.90;35.20;;;;;;;3.26;48.44;100147.69;6731493;29;20323;-80
2024/01/12 10:44:22;;;;;;;56.07;35.83;;;;;;;3.18;48.37;100144.84;6726071;29;20239;-80
2024/01/12 10:47:49;;;;;;;56.40;35.80;;;;;;;3.78;47.65;100148.53;6705772;29;20305;-82
2024/01/12 10:51:12;;;;;;;53.67;34.27;;;;;;;3.65;48.36;100171.06;6712867;29;20226;-80
2024/01/12 10:54:35;;;;;;;54.10;34.03;;;;;;;4.30;46.34;100152.94;6709214;29;20218;-80
2024/01/12 10:57:57;;;;;;;60.23;36.13;;;;;;;4.38;46.60;100148.63;6707229;29;20233;-80
2024/01/12 11:01:20;;;;;;;59.10;37.37;;;;;;;4.48;46.98;100148.66;6707093;29;20327;-81
2024/01/12 11:04:44;;;;;;;64.33;36.03;;;;;;;4.47;46.47;100150.47;6707340;29;20213;-81
2024/01/12 11:08:10;;;;;;;53.30;34.83;;;;;;;4.39;46.62;100163.66;6706603;29;20365;-80
2024/01/12 11:11:36;;;;;;;59.70;35.30;;;;;;;4.62;46.25;100135.78;6706209;29;20201;-80
2024/01/12 11:14:58;;;;;;;54.90;33.00;;;;;;;4.54;46.03;100150.81;6706909;29;20215;-80
2024/01/12 11:18:20;;;;;;;54.93;34.63;;;;;;;4.87;45.86;100147.78;6704933;29;20229;-81
2024/01/12 11:21:43;;;;;;;55.90;33.17;;;;;;;4.19;46.51;100151.19;6705940;29;20255;-80
2024/01/12 11:25:06;;;;;;;54.83;33.07;;;;;;;4.77;45.49;100131.75;6722658;29;20201;-80
2024/01/12 11:28:36;;;;;;;52.20;32.57;;;;;;;4.78;46.67;100140.63;6731775;29;20233;-80
2024/01/12 11:32:01;;;;;;;52.60;32.10;;;;;;;4.81;45.23;100132.31;6732868;29;20661;-80
2024/01/12 11:35:22;;;;;;;48.00;30.03;;;;;;;4.85;44.58;100133.75;6731552;29;20609;-80
2024/01/12 11:38:45;;;;;;;48.37;30.60;;;;;;;4.68;45.64;100121.03;6731723;29;20260;-80
2024/01/12 11:42:07;;;;;;;46.03;31.23;;;;;;;4.73;45.41;100135.66;6731508;29;20319;-82
2024/01/12 11:45:29;;;;;;;50.13;31.77;;;;;;;4.17;46.63;100096.25;6731716;29;20560;-84
2024/01/12 11:48:51;;;;;;;58.67;31.23;;;;;;;4.58;45.52;100120.16;6731920;29;20380;-82
2024/01/12 11:52:12;;;;;;;48.17;30.90;;;;;;;4.00;46.82;100124.38;6736514;29;20217;-80
2024/01/12 11:55:36;;;;;;;46.47;32.00;;;;;;;4.03;47.52;100115.28;6735587;29;20244;-80
2024/01/12 11:58:57;;;;;;;57.23;38.83;;;;;;;4.54;46.53;100106.22;6736653;29;20596;-82
2024/01/12 12:02:19;;;;;;;60.60;37.13;;;;;;;5.02;45.50;100093.00;6743358;29;20263;-80
2024/01/12 12:05:41;;;;;;;51.93;34.03;;;;;;;4.68;46.90;100107.69;6736876;29;20208;-80
2024/01/12 12:09:03;;;;;;;50.80;35.07;;;;;;;4.87;45.64;100099.69;6736831;29;20236;-80
2024/01/12 12:12:26;;;;;;;57.53;37.33;;;;;;;4.70;46.38;100103.03;6736523;29;20258;-80
2024/01/12 12:15:48;;;;;;;54.67;34.93;;;;;;;5.07;45.99;100090.75;6735630;29;20224;-80
2024/01/12 12:19:10;;;;;;;58.07;35.07;;;;;;;4.73;46.21;100084.06;6736059;29;20269;-80
2024/01/12 12:22:32;;;;;;;48.43;31.40;;;;;;;4.24;46.98;100087.56;6735400;29;20837;-80
2024/01/12 12:25:53;;;;;;;51.53;35.37;;;;;;;4.86;47.08;100088.19;6734991;29;20214;-80
2024/01/12 12:29:18;;;;;;;54.80;36.63;;;;;;;5.33;45.96;100076.69;6735189;29;20229;-81
2024/01/12 12:32:40;;;;;;;56.80;36.20;;;;;;;4.91;46.03;100075.25;6734953;29;20212;-81
2024/01/12 12:36:05;;;;;;;59.70;41.23;;;;;;;5.09;46.52;100070.06;6741960;29;20225;-80
2024/01/12 12:39:27;;;;;;;51.93;33.27;;;;;;;4.81;46.10;100047.69;6735795;29;20232;-80
2024/01/12 12:42:49;;;;;;;56.13;35.77;;;;;;;5.11;46.16;100046.69;6735728;29;20312;-80
2024/01/12 12:46:12;;;;;;;56.20;35.00;;;;;;;5.39;45.18;100046.72;6734706;29;20275;-80
2024/01/12 12:49:34;;;;;;;55.90;37.03;;;;;;;5.41;45.61;100051.88;6735428;29;20221;-80
2024/01/12 12:52:56;;;;;;;58.50;36.10;;;;;;;5.56;45.34;100051.34;6735260;29;20292;-80
2024/01/12 12:56:17;;;;;;;50.57;32.20;;;;;;;4.93;45.75;100061.75;6734616;29;20212;-80
2024/01/12 12:59:39;;;;;;;49.70;32.20;;;;;;;5.62;45.71;100042.72;6734666;29;20276;-81
2024/01/12 13:03:02;;;;;;;46.90;32.03;;;;;;;5.24;45.34;100053.44;6733603;29;20436;-80
2024/01/12 13:06:24;;;;;;;49.90;33.10;;;;;;;5.22;46.15;100039.41;6734347;29;20336;-80
2024/01/12 13:09:45;;;;;;;52.20;33.87;;;;;;;5.21;46.12;100027.03;6734965;29;20208;-80
2024/01/12 13:13:07;;;;;;;54.33;33.67;;;;;;;5.48;45.50;100036.97;6734605;29;20204;-80
2024/01/12 13:16:29;;;;;;;57.40;32.83;;;;;;;5.82;44.32;100017.63;6733596;29;20315;-79
2024/01/12 13:19:51;;;;;;;52.27;33.27;;;;;;;5.80;43.96;100024.13;6733891;29;20210;-80
2024/01/12 13:23:13;;;;;;;48.33;31.30;;;;;;;5.75;44.25;100024.53;6734455;29;20230;-80
2024/01/12 13:26:35;;;;;;;50.33;32.73;;;;;;;6.18;43.88;100008.75;6737421;29;20800;-81
2024/01/12 13:29:57;;;;;;;47.07;32.10;;;;;;;6.30;43.61;100006.72;6743906;29;20341;-80
2024/01/12 13:33:18;;;;;;;45.00;31.20;;;;;;;6.50;42.38;100002.94;6733534;29;20296;-80
2024/01/12 13:36:44;;;;;;;45.60;30.27;;;;;;;6.33;43.04;99993.88;6732188;29;20674;-80
2024/01/12 13:40:06;;;;;;;48.33;31.97;;;;;;;5.78;44.02;99994.78;6733508;29;20245;-81
2024/01/12 13:43:28;;;;;;;48.60;30.73;;;;;;;5.50;43.98;99998.41;6733636;29;20277;-80
2024/01/12 13:46:49;;;;;;;46.00;31.23;;;;;;;5.43;44.98;99994.59;6732827;29;20236;-80
2024/01/12 13:50:11;;;;;;;45.47;28.87;;;;;;;5.92;43.94;99980.97;6732553;29;20377;-80
2024/01/12 13:53:34;;;;;;;45.90;29.40;;;;;;;6.09;43.89;99987.38;6728508;29;20311;-80
2024/01/12 13:56:55;;;;;;;45.47;31.07;;;;;;;5.75;43.94;99996.91;6731629;29;20345;-79
2024/01/12 14:00:18;;;;;;;44.83;31.07;;;;;;;5.75;44.26;99983.53;6732212;29;20267;-79
2024/01/12 14:03:40;;;;;;;43.10;28.00;;;;;;;5.34;44.88;99990.13;6736677;29;20324;-79
2024/01/12 14:07:02;;;;;;;42.47;27.60;;;;;;;5.96;43.77;99998.41;6716184;29;20597;-80
2024/01/12 14:10:25;;;;;;;43.63;27.97;;;;;;;5.85;44.09;99993.25;6730443;29;20212;-79
2024/01/12 14:13:47;;;;;;;50.57;30.13;;;;;;;5.39;45.09;99987.88;6730667;29;20237;-80
2024/01/12 14:17:09;;;;;;;44.50;29.27;;;;;;;5.65;44.10;99980.91;6730853;29;20286;-80
2024/01/12 14:20:32;;;;;;;43.60;28.03;;;;;;;5.14;45.29;99974.25;6733870;29;20346;-80
2024/01/12 14:23:54;;;;;;;41.80;26.50;;;;;;;5.23;45.03;99958.19;6737571;29;20218;-79
2024/01/12 14:27:17;;;;;;;43.40;27.50;;;;;;;5.14;45.90;99993.78;6735312;29;20241;-79
2024/01/12 14:30:38;;;;;;;41.53;27.37;;;;;;;5.05;46.24;99980.44;6730702;29;20218;-80
2024/01/12 14:34:00;;;;;;;38.20;27.67;;;;;;;5.36;45.50;99984.63;6731712;29;20242;-80
2024/01/12 14:37:22;;;;;;;41.17;27.37;;;;;;;5.46;45.72;99988.97;6730828;29;20323;-81
2024/01/12 14:40:43;;;;;;;40.60;26.03;;;;;;;4.92;46.35;99985.22;6734146;29;20324;-82
2024/01/12 14:44:07;;;;;;;39.70;25.13;;;;;;;4.84;46.77;100003.81;6734937;29;20716;-79
2024/01/12 14:47:28;;;;;;;35.63;24.17;;;;;;;4.96;46.76;99981.31;6729327;29;20347;-80
2024/01/12 14:50:51;;;;;;;36.90;24.07;;;;;;;4.97;46.85;99996.34;6728848;29;20291;-79
2024/01/12 14:54:13;;;;;;;39.33;25.70;;;;;;;4.94;46.78;99999.28;6735163;29;20219;-79
2024/01/12 14:57:35;;;;;;;40.10;25.30;;;;;;;5.01;46.72;100013.81;6735935;29;20224;-78
2024/01/12 15:00:58;;;;;;;37.53;23.93;;;;;;;4.65;47.85;100025.16;6729199;29;20343;-78
2024/01/12 15:04:19;;;;;;;39.27;23.67;;;;;;;4.67;48.19;100020.53;6729057;29;20323;-78
2024/01/12 15:07:42;;;;;;;33.97;22.50;;;;;;;4.21;49.60;100017.59;6728444;29;20278;-78
2024/01/12 15:11:05;;;;;;;35.20;24.03;;;;;;;4.03;49.44;100024.56;6729718;29;20295;-79
2024/01/12 15:14:26;;;;;;;36.53;23.70;;;;;;;4.25;49.91;100021.69;6729515;29;20255;-78
2024/01/12 15:17:49;;;;;;;40.23;25.50;;;;;;;3.95;50.07;100024.38;6743921;29;20358;-78
2024/01/12 15:21:11;;;;;;;42.87;26.30;;;;;;;3.75;50.69;100015.44;6755272;29;20223;-79
2024/01/12 15:24:32;;;;;;;48.10;29.53;;;;;;;4.23;50.33;99999.59;6759134;29;20277;-79